In Rescue
 
Open Full Screen Window  High Contrast Mode
June 22, 2024 9:00 PM EDT
Present Weather: Light Rain
Weather Information
Wind Direction
  ---
Wind Speed
  00 kt (0 mph)
Wind Gust
  14 kt (16 mph)
Altimeter
29.92 in
Visibility
9 SM
Temperature
28° C
82° F
Dewpoint
22° C
72° F
Humidity
70%
Sky Condition
Broken @ 7,000 ft
VFR

METAR KUKT 230100Z AUTO 00000G14KT 9SM -RA BKN070 28/22 A2992 RMK AO2

FAA Disclaimer: The data displayed is for advisory purposes only and is not to be used for flight planning or operations.